1CL3 weather

Alameda County Parking Garage Heliport
Oakland, California, United States

Public forecast

Using degrees Fahrenheit for public forecast. Weather courtesy of forecast.io.

Closest aviation weather report (METAR) to Alameda County Parking Garage Heliport

Closest report is Metropolitan Oakland International Airport, 5.2 nm (9.6 km) SSE. Retrieved 2019/10/16 05:53 UTC (25 minutes ago):

KOAK 160553Z 00000KT 10SM CLR 11/08 A3005 RMK AO2 SLP175 T01060078 10194 20100 51005

Closest aviation forecast (TAF) to Alameda County Parking Garage Heliport

Closest forecast is Metropolitan Oakland International Airport, 5.2 nm (9.6 km) SSE. Retrieved 2019/10/16 06:36 UTC (0 seconds ago):

TAF KOAK 160533Z 1606/1712 30005KT P6SM SCT010 FM160900 VRB03KT P6SM SCT010 FM161100 VRB03KT 5SM BR BKN008 FM161800 26009KT P6SM FEW012 BKN200 FM162300 26012KT P6SM FEW010 SCT080 BKN150 FM170400 24009KT P6SM BKN015